Time;durP1;ratioP1;P1;durP2;ratioP2;P2;SDS_P1;SDS_P2;PMS_P1;PMS_P2;Temp;Humidity;BMP_temperature;BMP_pressure;BME280_temperature;BME280_humidity;BME280_pressure;Samples;Min_cycle;Max_cycle;Signal;HPM_P1;HPM_P2
2023/06/24 00:00:58;;;;;;;;;;;28.10;35.70;;;;;;5105566;27;42956;-77
2023/06/24 00:03:23;;;;;;;;;;;28.20;37.90;;;;;;5106242;27;43379;-75
2023/06/24 00:05:49;;;;;;;;;;;28.20;38.20;;;;;;5106698;27;43022;-76
2023/06/24 00:08:21;;;;;;;;;;;28.20;38.30;;;;;;5105764;27;43642;-75
2023/06/24 00:10:47;;;;;;;;;;;28.10;37.20;;;;;;5105579;27;43326;-76
2023/06/24 00:13:15;;;;;;;;;;;28.20;38.00;;;;;;5104793;27;43514;-83
2023/06/24 00:15:42;;;;;;;;;;;28.10;37.40;;;;;;5085983;27;43001;-75
2023/06/24 00:18:11;;;;;;;;;;;28.20;38.10;;;;;;5098515;27;43149;-75
2023/06/24 00:20:37;;;;;;;;;;;28.20;36.00;;;;;;5106107;27;42947;-78
2023/06/24 00:23:02;;;;;;;;;;;28.20;35.70;;;;;;5105296;27;43434;-75
2023/06/24 00:25:28;;;;;;;;;;;28.10;35.30;;;;;;5105398;27;42991;-75
2023/06/24 00:27:54;;;;;;;;;;;28.10;33.50;;;;;;5105742;27;42944;-75
2023/06/24 00:30:20;;;;;;;;;;;28.10;34.10;;;;;;5106649;27;43474;-76
2023/06/24 00:32:45;;;;;;;;;;;28.10;36.60;;;;;;5088578;27;43620;-78
2023/06/24 00:35:12;;;;;;;;;;;28.20;37.00;;;;;;5099023;27;42998;-76
2023/06/24 00:37:38;;;;;;;;;;;28.00;34.00;;;;;;5085147;27;44279;-81
2023/06/24 00:40:04;;;;;;;;;;;28.00;35.00;;;;;;5096881;27;42940;-75
2023/06/24 00:42:30;;;;;;;;;;;28.00;35.80;;;;;;5105449;27;42940;-75
2023/06/24 00:44:56;;;;;;;;;;;28.10;36.10;;;;;;5105464;27;42964;-76
2023/06/24 00:47:22;;;;;;;;;;;28.10;36.50;;;;;;5105478;27;43072;-76
2023/06/24 00:49:48;;;;;;;;;;;28.10;35.60;;;;;;5138169;27;43044;-76
2023/06/24 00:52:16;;;;;;;;;;;28.10;35.00;;;;;;5104939;27;42914;-80
2023/06/24 00:54:42;;;;;;;;;;;28.10;34.60;;;;;;5105095;27;42762;-81
2023/06/24 00:57:08;;;;;;;;;;;28.10;35.40;;;;;;5104304;27;43530;-76
2023/06/24 00:59:34;;;;;;;;;;;28.10;35.90;;;;;;5104987;27;42983;-78
2023/06/24 01:02:04;;;;;;;;;;;28.00;34.00;;;;;;5105302;27;43645;-75
2023/06/24 01:04:30;;;;;;;;;;;28.10;35.70;;;;;;5105344;27;43007;-80
2023/06/24 01:06:56;;;;;;;;;;;28.00;35.40;;;;;;5101882;27;43460;-76
2023/06/24 01:09:23;;;;;;;;;;;28.10;34.20;;;;;;5090001;27;42953;-76
2023/06/24 01:11:48;;;;;;;;;;;28.00;33.80;;;;;;5103099;27;45028;-80
2023/06/24 01:14:14;;;;;;;;;;;28.00;34.90;;;;;;5103269;27;42869;-76
2023/06/24 01:16:48;;;;;;;;;;;28.10;34.60;;;;;;5104865;27;42926;-76
2023/06/24 01:19:29;;;;;;;;;;;28.10;35.80;;;;;;5105643;27;42937;-75
2023/06/24 01:22:13;;;;;;;;;;;28.10;34.10;;;;;;5104947;27;43881;-76
2023/06/24 01:25:01;;;;;;;;;;;28.00;34.70;;;;;;5104773;27;42955;-78
2023/06/24 01:27:41;;;;;;;;;;;28.00;34.40;;;;;;5105081;27;43032;-75
2023/06/24 01:30:13;;;;;;;;;;;28.00;34.10;;;;;;5103678;27;43031;-75
2023/06/24 01:32:41;;;;;;;;;;;27.90;33.70;;;;;;5104778;27;43814;-75
2023/06/24 01:35:30;;;;;;;;;;;27.90;33.90;;;;;;5092169;27;43042;-75
2023/06/24 01:37:56;;;;;;;;;;;27.90;33.90;;;;;;5104864;27;42956;-75
2023/06/24 01:40:22;;;;;;;;;;;28.00;34.50;;;;;;5103893;27;42903;-76
2023/06/24 01:42:48;;;;;;;;;;;28.00;35.10;;;;;;5104796;27;42990;-75
2023/06/24 01:45:14;;;;;;;;;;;28.00;35.50;;;;;;5104690;27;42972;-79
2023/06/24 01:47:43;;;;;;;;;;;27.90;33.80;;;;;;5102021;27;64633;-76
2023/06/24 01:50:10;;;;;;;;;;;28.00;34.70;;;;;;5104150;27;42950;-79
2023/06/24 01:52:36;;;;;;;;;;;28.00;35.10;;;;;;5104134;27;43179;-75
2023/06/24 01:55:04;;;;;;;;;;;28.00;34.70;;;;;;5103944;27;42866;-75
2023/06/24 01:57:30;;;;;;;;;;;28.00;33.70;;;;;;5104900;27;42849;-75
2023/06/24 01:59:57;;;;;;;;;;;27.90;33.50;;;;;;5105298;27;42901;-81
2023/06/24 02:02:23;;;;;;;;;;;28.00;34.00;;;;;;5104479;27;43774;-75
2023/06/24 02:04:49;;;;;;;;;;;28.00;35.20;;;;;;5102354;27;43115;-75
2023/06/24 02:07:16;;;;;;;;;;;28.00;34.60;;;;;;5102637;27;43829;-80
2023/06/24 02:09:43;;;;;;;;;;;28.00;35.00;;;;;;5103599;27;42980;-75
2023/06/24 02:12:10;;;;;;;;;;;28.00;33.90;;;;;;5102635;27;43151;-82
2023/06/24 02:14:36;;;;;;;;;;;28.00;33.40;;;;;;5095465;27;42987;-75
2023/06/24 02:17:03;;;;;;;;;;;27.80;33.30;;;;;;5090334;27;43852;-81
2023/06/24 02:19:29;;;;;;;;;;;27.90;33.80;;;;;;5104122;27;42936;-76
2023/06/24 02:21:56;;;;;;;;;;;28.00;34.40;;;;;;5104255;27;43591;-76
2023/06/24 02:24:22;;;;;;;;;;;28.00;33.60;;;;;;5102427;27;43099;-81
2023/06/24 02:26:48;;;;;;;;;;;27.90;33.70;;;;;;5104158;27;44038;-81
2023/06/24 02:29:13;;;;;;;;;;;28.00;34.40;;;;;;5103841;27;42928;-76
2023/06/24 02:31:39;;;;;;;;;;;28.00;33.90;;;;;;5104415;27;43132;-75
2023/06/24 02:34:05;;;;;;;;;;;27.90;33.50;;;;;;5104152;27;42890;-75
2023/06/24 02:36:30;;;;;;;;;;;27.90;33.30;;;;;;5104194;27;42992;-83
2023/06/24 02:38:56;;;;;;;;;;;27.80;33.10;;;;;;5103816;27;43075;-75
2023/06/24 02:41:21;;;;;;;;;;;27.90;34.10;;;;;;5106842;27;42902;-76
2023/06/24 02:43:47;;;;;;;;;;;28.00;34.00;;;;;;5107906;27;43056;-81
2023/06/24 02:46:13;;;;;;;;;;;27.90;33.60;;;;;;5107470;27;43343;-81
2023/06/24 02:48:40;;;;;;;;;;;28.00;34.70;;;;;;5108279;27;42931;-75
2023/06/24 02:51:06;;;;;;;;;;;28.00;33.60;;;;;;5107665;27;43790;-80
2023/06/24 02:53:32;;;;;;;;;;;27.80;33.20;;;;;;5107516;27;43298;-78
2023/06/24 02:55:58;;;;;;;;;;;27.90;33.90;;;;;;5106954;27;42938;-81
2023/06/24 02:58:31;;;;;;;;;;;27.90;32.60;;;;;;5107861;27;42887;-75
2023/06/24 03:00:59;;;;;;;;;;;27.90;33.10;;;;;;5095113;27;42942;-77
2023/06/24 03:03:26;;;;;;;;;;;27.80;32.50;;;;;;5106907;27;42830;-76
2023/06/24 03:05:53;;;;;;;;;;;27.90;33.80;;;;;;5107527;27;42933;-75
2023/06/24 03:08:19;;;;;;;;;;;27.90;33.60;;;;;;5106381;27;44073;-75
2023/06/24 03:10:44;;;;;;;;;;;28.00;34.60;;;;;;5106196;27;43823;-77
2023/06/24 03:13:10;;;;;;;;;;;28.00;34.20;;;;;;5104855;27;42907;-76
2023/06/24 03:15:35;;;;;;;;;;;28.00;34.20;;;;;;5107007;27;43311;-75
2023/06/24 03:18:01;;;;;;;;;;;28.10;34.40;;;;;;5106648;27;42893;-78
2023/06/24 03:20:26;;;;;;;;;;;28.00;33.60;;;;;;5106793;27;42941;-81
2023/06/24 03:22:52;;;;;;;;;;;28.10;34.70;;;;;;5106294;27;42959;-81
2023/06/24 03:25:17;;;;;;;;;;;28.00;34.70;;;;;;5093605;27;42861;-79
2023/06/24 03:27:43;;;;;;;;;;;27.90;33.70;;;;;;5100939;27;42890;-76
2023/06/24 03:30:10;;;;;;;;;;;27.90;34.70;;;;;;5106651;27;42953;-82
2023/06/24 03:32:36;;;;;;;;;;;27.90;35.20;;;;;;5105929;27;42922;-75
2023/06/24 03:35:02;;;;;;;;;;;28.00;35.90;;;;;;5093469;27;42901;-75
2023/06/24 03:37:28;;;;;;;;;;;27.90;36.20;;;;;;5104964;27;43134;-78
2023/06/24 03:39:53;;;;;;;;;;;27.90;36.60;;;;;;5106957;27;42903;-77
2023/06/24 03:42:19;;;;;;;;;;;27.90;37.50;;;;;;5106741;27;42972;-75
2023/06/24 03:44:44;;;;;;;;;;;27.90;38.00;;;;;;5106626;27;43206;-81
2023/06/24 03:47:10;;;;;;;;;;;27.90;38.10;;;;;;5106770;27;43096;-76
2023/06/24 03:49:36;;;;;;;;;;;27.80;38.10;;;;;;5107072;27;43931;-82
2023/06/24 03:52:01;;;;;;;;;;;27.80;38.50;;;;;;5105483;27;42890;-74
2023/06/24 03:54:27;;;;;;;;;;;27.80;38.80;;;;;;5106390;27;43915;-75
2023/06/24 03:56:52;;;;;;;;;;;27.80;39.00;;;;;;5106470;27;42936;-79
2023/06/24 03:59:18;;;;;;;;;;;27.80;39.60;;;;;;5105914;27;43349;-75
2023/06/24 04:01:43;;;;;;;;;;;27.70;39.30;;;;;;5106685;27;42897;-75
2023/06/24 04:04:09;;;;;;;;;;;27.70;39.60;;;;;;5105395;27;42920;-81
2023/06/24 04:06:34;;;;;;;;;;;27.70;40.20;;;;;;5104990;27;42932;-82
2023/06/24 04:09:00;;;;;;;;;;;27.70;39.70;;;;;;5105442;27;43501;-75
2023/06/24 04:11:25;;;;;;;;;;;27.70;39.60;;;;;;5105338;27;43010;-82
2023/06/24 04:13:51;;;;;;;;;;;27.70;39.70;;;;;;5104185;27;42945;-75
2023/06/24 04:16:16;;;;;;;;;;;27.70;40.00;;;;;;5106131;27;43094;-77
2023/06/24 04:18:42;;;;;;;;;;;27.70;40.10;;;;;;5105199;27;43543;-75
2023/06/24 04:21:07;;;;;;;;;;;27.70;40.00;;;;;;5105740;27;42954;-76
2023/06/24 04:23:33;;;;;;;;;;;27.70;40.50;;;;;;5105934;27;42981;-78
2023/06/24 04:25:59;;;;;;;;;;;27.70;40.00;;;;;;5105314;27;43113;-75
2023/06/24 04:28:24;;;;;;;;;;;27.70;40.60;;;;;;5105529;27;42886;-75
2023/06/24 04:30:50;;;;;;;;;;;27.60;40.30;;;;;;5105191;27;42985;-79
2023/06/24 04:33:15;;;;;;;;;;;27.60;40.00;;;;;;5105782;27;43655;-76
2023/06/24 04:35:41;;;;;;;;;;;27.70;40.50;;;;;;5105230;27;42980;-81
2023/06/24 04:38:06;;;;;;;;;;;27.60;40.10;;;;;;5105651;27;42958;-76
2023/06/24 04:40:32;;;;;;;;;;;27.60;40.20;;;;;;5105520;27;42912;-78
2023/06/24 04:42:57;;;;;;;;;;;27.60;40.90;;;;;;5105849;27;43622;-75
2023/06/24 04:45:23;;;;;;;;;;;27.60;41.20;;;;;;5105353;27;42833;-80
2023/06/24 04:47:49;;;;;;;;;;;27.50;40.80;;;;;;5105944;27;44126;-82
2023/06/24 04:50:14;;;;;;;;;;;27.50;41.10;;;;;;5105245;27;42884;-83
2023/06/24 04:52:40;;;;;;;;;;;27.40;40.60;;;;;;5104637;27;42840;-79
2023/06/24 04:55:05;;;;;;;;;;;27.20;40.90;;;;;;5105159;27;42928;-75
2023/06/24 04:57:31;;;;;;;;;;;27.10;40.60;;;;;;5105118;27;43038;-83
2023/06/24 04:59:57;;;;;;;;;;;27.10;41.00;;;;;;5105140;27;43070;-76
2023/06/24 05:02:23;;;;;;;;;;;27.20;40.60;;;;;;5105647;27;42934;-81
2023/06/24 05:04:48;;;;;;;;;;;27.20;40.50;;;;;;5103599;27;43365;-75
2023/06/24 05:07:14;;;;;;;;;;;27.20;40.70;;;;;;5091834;27;43519;-83
2023/06/24 05:09:40;;;;;;;;;;;27.20;40.90;;;;;;5105543;27;42986;-75
2023/06/24 05:12:05;;;;;;;;;;;29.20;42.40;;;;;;5105673;27;43038;-76
2023/06/24 05:14:31;;;;;;;;;;;27.40;41.50;;;;;;5103399;27;43290;-75
2023/06/24 05:16:57;;;;;;;;;;;27.50;41.70;;;;;;5105248;27;43485;-75
2023/06/24 05:19:22;;;;;;;;;;;27.40;41.70;;;;;;5105633;27;42959;-78
2023/06/24 05:21:48;;;;;;;;;;;27.40;41.70;;;;;;5104900;27;42967;-81
2023/06/24 05:24:13;;;;;;;;;;;27.50;41.60;;;;;;5105309;27;42854;-80
2023/06/24 05:26:39;;;;;;;;;;;27.50;41.20;;;;;;5100003;27;43369;-78
2023/06/24 05:29:04;;;;;;;;;;;27.50;41.30;;;;;;5097128;27;42887;-77
2023/06/24 05:31:30;;;;;;;;;;;27.50;41.90;;;;;;5104136;27;43000;-80
2023/06/24 05:33:55;;;;;;;;;;;27.50;41.30;;;;;;5104417;27;42965;-75
2023/06/24 05:36:21;;;;;;;;;;;27.40;41.50;;;;;;5102432;27;43719;-76
2023/06/24 05:38:48;;;;;;;;;;;27.40;41.40;;;;;;5104533;27;42944;-77
2023/06/24 05:41:14;;;;;;;;;;;27.40;41.90;;;;;;5104504;27;42888;-76
2023/06/24 05:43:39;;;;;;;;;;;27.40;41.40;;;;;;5104826;27;42918;-76
2023/06/24 05:46:05;;;;;;;;;;;27.40;41.30;;;;;;5103608;27;43230;-75
2023/06/24 05:48:30;;;;;;;;;;;27.40;41.70;;;;;;5104575;27;43053;-75
2023/06/24 05:50:56;;;;;;;;;;;27.40;42.00;;;;;;5103559;27;43388;-76
2023/06/24 05:53:21;;;;;;;;;;;27.50;41.20;;;;;;5105101;27;42960;-75
2023/06/24 05:55:47;;;;;;;;;;;27.50;40.10;;;;;;5104471;27;43546;-75
2023/06/24 05:58:12;;;;;;;;;;;27.50;40.40;;;;;;5105468;27;42890;-76
2023/06/24 06:00:38;;;;;;;;;;;27.50;39.80;;;;;;5103728;27;44110;-76
2023/06/24 06:03:03;;;;;;;;;;;27.50;39.30;;;;;;5103707;27;42971;-76
2023/06/24 06:05:29;;;;;;;;;;;27.50;39.50;;;;;;5102658;27;43023;-75
2023/06/24 06:07:54;;;;;;;;;;;27.50;40.10;;;;;;5104007;27;42942;-75
2023/06/24 06:10:21;;;;;;;;;;;27.60;40.80;;;;;;5103994;27;43433;-75
2023/06/24 06:12:46;;;;;;;;;;;27.60;39.80;;;;;;5103729;27;42876;-75
2023/06/24 06:15:12;;;;;;;;;;;27.60;39.90;;;;;;5104007;27;43045;-76
2023/06/24 06:17:37;;;;;;;;;;;27.60;40.10;;;;;;5108378;27;42798;-77
2023/06/24 06:20:03;;;;;;;;;;;27.60;38.90;;;;;;5107372;27;42987;-76
2023/06/24 06:22:29;;;;;;;;;;;27.60;39.30;;;;;;5107596;27;43025;-76
2023/06/24 06:24:54;;;;;;;;;;;27.60;39.10;;;;;;5108564;27;44493;-75
2023/06/24 06:27:20;;;;;;;;;;;27.60;38.90;;;;;;5090138;27;42904;-76
2023/06/24 06:29:45;;;;;;;;;;;27.70;39.80;;;;;;5103638;27;43003;-75
2023/06/24 06:32:11;;;;;;;;;;;27.70;39.60;;;;;;5107561;27;43010;-75
2023/06/24 06:34:36;;;;;;;;;;;27.70;39.60;;;;;;5095685;27;43391;-75
2023/06/24 06:37:02;;;;;;;;;;;27.80;40.10;;;;;;5106013;27;43101;-75
2023/06/24 06:39:28;;;;;;;;;;;27.80;39.10;;;;;;5107835;27;42979;-76
2023/06/24 06:41:53;;;;;;;;;;;27.80;39.40;;;;;;5107322;27;43139;-75
2023/06/24 06:44:19;;;;;;;;;;;27.80;39.80;;;;;;5101180;27;43744;-75
2023/06/24 06:46:44;;;;;;;;;;;27.80;39.00;;;;;;5107686;27;43025;-76
2023/06/24 06:49:10;;;;;;;;;;;27.80;39.50;;;;;;5107502;27;42845;-75
2023/06/24 06:51:36;;;;;;;;;;;27.90;39.40;;;;;;5108005;27;42995;-78
2023/06/24 06:54:02;;;;;;;;;;;27.80;39.30;;;;;;5107243;27;43866;-82
2023/06/24 06:56:28;;;;;;;;;;;27.80;39.50;;;;;;5107934;27;42956;-81
2023/06/24 06:58:53;;;;;;;;;;;27.70;39.90;;;;;;5106319;27;44446;-80
2023/06/24 07:01:19;;;;;;;;;;;27.90;40.70;;;;;;5107222;27;43097;-76
2023/06/24 07:03:44;;;;;;;;;;;27.90;40.80;;;;;;5107608;27;43499;-75
2023/06/24 07:06:10;;;;;;;;;;;27.80;40.80;;;;;;5106207;27;43008;-76
2023/06/24 07:08:35;;;;;;;;;;;27.90;40.70;;;;;;5106965;27;42999;-82
2023/06/24 07:11:02;;;;;;;;;;;27.90;41.00;;;;;;5106974;27;42980;-75
2023/06/24 07:13:27;;;;;;;;;;;27.90;40.90;;;;;;5105517;27;43594;-75
2023/06/24 07:15:53;;;;;;;;;;;27.90;40.60;;;;;;5107281;27;42995;-75
2023/06/24 07:18:18;;;;;;;;;;;27.90;41.10;;;;;;5106460;27;42964;-75
2023/06/24 07:20:44;;;;;;;;;;;24.00;38.40;;;;;;5106876;27;43056;-75
2023/06/24 07:23:10;;;;;;;;;;;27.90;41.10;;;;;;5107573;27;43451;-75
2023/06/24 07:25:36;;;;;;;;;;;27.90;41.20;;;;;;5105726;27;43052;-82
2023/06/24 07:28:01;;;;;;;;;;;28.00;41.70;;;;;;5104838;27;43352;-75
2023/06/24 07:30:27;;;;;;;;;;;27.90;41.70;;;;;;5092430;27;42944;-79
2023/06/24 07:32:52;;;;;;;;;;;27.90;41.20;;;;;;5106679;27;43003;-81
2023/06/24 07:35:18;;;;;;;;;;;28.00;41.90;;;;;;5105992;27;42956;-75
2023/06/24 07:37:44;;;;;;;;;;;28.00;41.90;;;;;;5106447;27;43443;-75
2023/06/24 07:40:10;;;;;;;;;;;27.90;41.50;;;;;;5106176;27;43144;-76
2023/06/24 07:42:35;;;;;;;;;;;27.90;41.50;;;;;;5106079;27;43336;-82
2023/06/24 07:45:01;;;;;;;;;;;28.00;42.10;;;;;;5098473;27;43091;-76
2023/06/24 07:47:27;;;;;;;;;;;28.00;41.70;;;;;;5107103;27;44046;-77
2023/06/24 07:49:52;;;;;;;;;;;28.00;42.10;;;;;;5105672;27;43585;-82
2023/06/24 07:52:18;;;;;;;;;;;28.10;42.20;;;;;;5106131;27;43147;-83
2023/06/24 07:54:43;;;;;;;;;;;28.00;41.50;;;;;;5106910;27;43050;-76
2023/06/24 07:57:09;;;;;;;;;;;28.00;42.10;;;;;;5106411;27;44172;-83
2023/06/24 07:59:34;;;;;;;;;;;28.00;42.20;;;;;;5105819;27;43148;-75
2023/06/24 08:02:00;;;;;;;;;;;28.10;41.70;;;;;;5105941;27;43926;-76
2023/06/24 08:04:25;;;;;;;;;;;28.00;41.50;;;;;;5105444;27;42966;-77
2023/06/24 08:06:51;;;;;;;;;;;28.10;41.60;;;;;;5106479;27;42980;-80
2023/06/24 08:09:17;;;;;;;;;;;28.10;42.10;;;;;;5106324;27;43015;-78
2023/06/24 08:11:42;;;;;;;;;;;28.10;41.60;;;;;;5105840;27;43851;-79
2023/06/24 08:14:08;;;;;;;;;;;28.10;41.60;;;;;;5105389;27;42977;-76
2023/06/24 08:16:33;;;;;;;;;;;28.10;41.30;;;;;;5106303;27;43367;-81
2023/06/24 08:18:59;;;;;;;;;;;28.10;41.10;;;;;;5106656;27;42876;-75
2023/06/24 08:21:24;;;;;;;;;;;28.10;41.10;;;;;;5105625;27;42973;-81
2023/06/24 08:23:51;;;;;;;;;;;28.10;41.70;;;;;;5106817;27;42994;-75
2023/06/24 08:26:17;;;;;;;;;;;28.10;41.30;;;;;;5105694;27;44283;-80
2023/06/24 08:28:42;;;;;;;;;;;28.10;41.30;;;;;;5105413;27;42842;-82
2023/06/24 08:31:08;;;;;;;;;;;28.10;41.60;;;;;;5091507;27;43495;-76
2023/06/24 08:33:33;;;;;;;;;;;28.20;41.30;;;;;;5105644;27;42932;-75
2023/06/24 08:35:59;;;;;;;;;;;28.10;40.90;;;;;;5105238;27;43404;-76
2023/06/24 08:38:24;;;;;;;;;;;28.10;41.00;;;;;;5106170;27;42947;-76
2023/06/24 08:40:50;;;;;;;;;;;28.10;41.30;;;;;;5106259;27;43726;-78
2023/06/24 08:43:16;;;;;;;;;;;28.10;41.20;;;;;;5105384;27;43652;-81
2023/06/24 08:45:41;;;;;;;;;;;28.10;40.70;;;;;;5105015;27;43028;-78
2023/06/24 08:48:07;;;;;;;;;;;28.10;40.70;;;;;;5106105;27;42969;-75
2023/06/24 08:50:35;;;;;;;;;;;28.10;40.60;;;;;;5105006;27;43590;-82
2023/06/24 08:53:02;;;;;;;;;;;28.10;41.40;;;;;;5105907;27;43130;-82
2023/06/24 08:55:31;;;;;;;;;;;28.10;41.20;;;;;;5108181;27;43489;-80
2023/06/24 08:57:56;;;;;;;;;;;28.10;40.90;;;;;;5104687;27;42948;-76
2023/06/24 09:00:22;;;;;;;;;;;28.10;40.40;;;;;;5104547;27;43103;-82
2023/06/24 09:02:47;;;;;;;;;;;28.10;40.50;;;;;;5105294;27;42905;-83
2023/06/24 09:05:13;;;;;;;;;;;28.10;39.90;;;;;;5103270;27;43152;-76
2023/06/24 09:07:38;;;;;;;;;;;28.10;40.10;;;;;;5090699;27;43001;-77
2023/06/24 09:10:04;;;;;;;;;;;28.10;40.10;;;;;;5098478;27;44044;-76
2023/06/24 09:12:31;;;;;;;;;;;28.10;39.70;;;;;;5105263;27;42973;-83
2023/06/24 09:14:57;;;;;;;;;;;28.10;39.40;;;;;;5099117;27;42972;-77
2023/06/24 09:17:22;;;;;;;;;;;28.10;39.10;;;;;;5084405;27;42943;-75
2023/06/24 09:19:48;;;;;;;;;;;28.10;38.90;;;;;;5097923;27;42810;-83
2023/06/24 09:22:18;;;;;;;;;;;28.10;38.80;;;;;;5104177;27;42924;-77
2023/06/24 09:24:46;;;;;;;;;;;28.10;39.30;;;;;;5102480;27;42988;-83
2023/06/24 09:27:15;;;;;;;;;;;28.10;39.40;;;;;;5093212;27;43164;-81
2023/06/24 09:29:42;;;;;;;;;;;25.30;37.60;;;;;;5104234;27;43484;-78
2023/06/24 09:32:08;;;;;;;;;;;28.10;39.50;;;;;;5099605;27;42996;-81
2023/06/24 09:34:33;;;;;;;;;;;28.20;39.40;;;;;;5095294;27;42878;-81
2023/06/24 09:36:59;;;;;;;;;;;28.10;39.20;;;;;;5104881;27;42936;-75
2023/06/24 09:39:30;;;;;;;;;;;28.10;39.50;;;;;;5104285;27;43878;-81
2023/06/24 09:41:56;;;;;;;;;;;28.20;39.70;;;;;;5101926;27;42949;-77
2023/06/24 09:44:22;;;;;;;;;;;28.10;39.30;;;;;;5103450;27;43137;-75
2023/06/24 09:46:48;;;;;;;;;;;28.20;40.00;;;;;;5103992;27;43329;-77
2023/06/24 09:49:13;;;;;;;;;;;28.20;39.60;;;;;;5103061;27;43376;-75
2023/06/24 09:51:40;;;;;;;;;;;28.10;39.20;;;;;;5093981;27;43138;-82
2023/06/24 09:54:06;;;;;;;;;;;28.20;39.50;;;;;;5096956;27;43621;-75
2023/06/24 09:56:33;;;;;;;;;;;28.20;39.50;;;;;;5103275;27;42936;-76
2023/06/24 09:58:58;;;;;;;;;;;28.20;39.50;;;;;;5103381;27;43809;-75
2023/06/24 10:01:24;;;;;;;;;;;28.20;40.00;;;;;;5104100;27;42953;-75
2023/06/24 10:03:50;;;;;;;;;;;28.20;39.80;;;;;;5088002;27;43572;-76
2023/06/24 10:06:15;;;;;;;;;;;28.20;40.50;;;;;;5104570;27;42968;-82
2023/06/24 10:08:41;;;;;;;;;;;28.20;40.40;;;;;;5103692;27;43556;-79
2023/06/24 10:11:07;;;;;;;;;;;28.30;40.30;;;;;;5103787;27;43462;-74
2023/06/24 10:13:32;;;;;;;;;;;28.20;39.80;;;;;;5100355;27;44064;-76
2023/06/24 10:15:58;;;;;;;;;;;28.20;40.40;;;;;;5096415;27;42990;-80
2023/06/24 10:18:37;;;;;;;;;;;28.30;40.00;;;;;;5102558;27;42894;-81
2023/06/24 10:21:06;;;;;;;;;;;28.20;39.80;;;;;;5095006;27;42968;-75
2023/06/24 10:23:32;;;;;;;;;;;28.30;39.90;;;;;;5094462;27;43706;-77
2023/06/24 10:25:57;;;;;;;;;;;28.20;40.10;;;;;;5092402;27;42973;-76
2023/06/24 10:28:23;;;;;;;;;;;28.30;40.20;;;;;;5093752;27;43641;-77
2023/06/24 10:30:56;;;;;;;;;;;28.30;40.60;;;;;;5103917;27;42919;-75
2023/06/24 10:33:23;;;;;;;;;;;28.30;40.20;;;;;;5102487;27;43025;-75
2023/06/24 10:35:48;;;;;;;;;;;28.30;40.20;;;;;;5104491;27;42881;-79
2023/06/24 10:38:14;;;;;;;;;;;28.30;40.30;;;;;;5103405;27;43561;-80
2023/06/24 10:40:39;;;;;;;;;;;28.30;40.40;;;;;;5085547;27;43025;-80
2023/06/24 10:43:23;;;;;;;;;;;28.30;40.80;;;;;;5089906;27;43849;-78
2023/06/24 10:45:50;;;;;;;;;;;28.30;40.30;;;;;;5103198;27;43067;-75
2023/06/24 10:48:15;;;;;;;;;;;28.30;40.70;;;;;;5101703;27;44459;-75
2023/06/24 10:50:41;;;;;;;;;;;28.30;40.40;;;;;;5101064;27;43035;-79
2023/06/24 10:53:08;;;;;;;;;;;28.30;40.70;;;;;;5098022;27;43040;-78
2023/06/24 10:55:35;;;;;;;;;;;28.30;41.20;;;;;;5102555;27;43281;-77
2023/06/24 10:58:10;;;;;;;;;;;28.30;41.20;;;;;;5101697;27;43499;-76
2023/06/24 11:00:35;;;;;;;;;;;28.30;40.50;;;;;;5100973;27;42972;-77
2023/06/24 11:03:07;;;;;;;;;;;28.30;40.60;;;;;;5105311;27;43226;-76
2023/06/24 11:05:33;;;;;;;;;;;28.30;41.20;;;;;;5105129;27;42953;-75
2023/06/24 11:07:58;;;;;;;;;;;28.40;40.80;;;;;;5105887;27;43032;-76
2023/06/24 11:10:24;;;;;;;;;;;28.40;41.30;;;;;;5105618;27;43012;-79
2023/06/24 11:12:51;;;;;;;;;;;28.40;41.40;;;;;;5106241;27;43699;-79
2023/06/24 11:15:17;;;;;;;;;;;28.40;40.50;;;;;;5090910;27;42981;-76
2023/06/24 11:17:43;;;;;;;;;;;28.40;41.00;;;;;;5097081;27;43080;-76
2023/06/24 11:20:10;;;;;;;;;;;28.30;40.30;;;;;;5106393;27;43916;-77
2023/06/24 11:22:35;;;;;;;;;;;28.40;40.20;;;;;;5105478;27;43136;-75
2023/06/24 11:25:01;;;;;;;;;;;28.40;40.30;;;;;;5114403;27;42948;-75
2023/06/24 11:27:27;;;;;;;;;;;28.40;40.90;;;;;;5123869;27;43482;-75
2023/06/24 11:29:53;;;;;;;;;;;28.40;40.90;;;;;;5106392;27;42947;-76
2023/06/24 11:32:19;;;;;;;;;;;28.40;40.50;;;;;;5106292;27;43139;-75
2023/06/24 11:34:45;;;;;;;;;;;28.50;41.10;;;;;;5106198;27;43031;-75
2023/06/24 11:37:14;;;;;;;;;;;28.40;40.40;;;;;;5104241;27;43165;-74
2023/06/24 11:39:40;;;;;;;;;;;28.50;41.00;;;;;;5106058;27;43151;-76
2023/06/24 11:42:07;;;;;;;;;;;28.40;40.40;;;;;;5105736;27;43770;-75
2023/06/24 11:44:32;;;;;;;;;;;28.40;40.90;;;;;;5093911;27;42814;-76
2023/06/24 11:47:04;;;;;;;;;;;28.50;40.60;;;;;;5103919;27;43031;-75
2023/06/24 11:49:30;;;;;;;;;;;28.40;40.30;;;;;;5105667;27;43022;-76
2023/06/24 11:51:56;;;;;;;;;;;27.80;40.40;;;;;;5104850;27;43658;-75
2023/06/24 11:54:22;;;;;;;;;;;28.40;40.90;;;;;;5101360;27;42971;-75
2023/06/24 11:56:53;;;;;;;;;;;28.50;40.50;;;;;;5105699;27;43709;-77
2023/06/24 11:59:24;;;;;;;;;;;28.40;40.80;;;;;;5100238;27;43421;-83
2023/06/24 12:01:56;;;;;;;;;;;28.40;40.60;;;;;;5087957;27;44394;-75
2023/06/24 12:04:31;;;;;;;;;;;28.50;41.20;;;;;;5107441;27;42997;-75
2023/06/24 12:06:57;;;;;;;;;;;28.50;41.20;;;;;;5107219;27;43485;-75
2023/06/24 12:09:23;;;;;;;;;;;29.10;41.50;;;;;;5098460;27;42879;-75
2023/06/24 12:11:49;;;;;;;;;;;28.50;41.20;;;;;;5105657;27;43538;-81
2023/06/24 12:14:14;;;;;;;;;;;28.50;41.10;;;;;;5104908;27;43076;-75
2023/06/24 12:16:40;;;;;;;;;;;28.40;40.60;;;;;;5101512;27;43541;-74
2023/06/24 12:19:08;;;;;;;;;;;28.50;40.10;;;;;;5105763;27;43011;-78
2023/06/24 12:21:34;;;;;;;;;;;;;;;;;;5105054;27;42960;-78
2023/06/24 12:24:00;;;;;;;;;;;28.50;40.30;;;;;;5103280;27;43732;-75
2023/06/24 12:26:25;;;;;;;;;;;28.50;40.70;;;;;;5105817;27;43020;-75
2023/06/24 12:28:54;;;;;;;;;;;28.50;40.40;;;;;;5104868;27;42881;-75
2023/06/24 12:31:19;;;;;;;;;;;28.50;40.40;;;;;;5104095;27;42980;-75
2023/06/24 12:33:45;;;;;;;;;;;28.50;40.50;;;;;;5101360;27;42870;-75
2023/06/24 12:36:10;;;;;;;;;;;28.50;40.70;;;;;;5089208;27;43846;-79
2023/06/24 12:38:35;;;;;;;;;;;28.50;41.20;;;;;;5105679;27;42911;-80
2023/06/24 12:41:02;;;;;;;;;;;28.60;41.50;;;;;;5101581;27;43193;-80
2023/06/24 12:43:27;;;;;;;;;;;28.60;41.30;;;;;;5105177;27;43450;-81
2023/06/24 12:45:52;;;;;;;;;;;28.60;41.30;;;;;;5104931;27;43462;-80
2023/06/24 12:48:18;;;;;;;;;;;28.60;41.00;;;;;;5105069;27;43245;-78
2023/06/24 12:50:43;;;;;;;;;;;28.60;41.50;;;;;;5105078;27;43101;-81
2023/06/24 12:53:14;;;;;;;;;;;28.50;41.40;;;;;;5104364;27;42940;-77
2023/06/24 12:55:39;;;;;;;;;;;28.60;41.30;;;;;;5103713;27;43754;-80
2023/06/24 12:58:05;;;;;;;;;;;28.50;41.20;;;;;;5103256;27;43045;-78
2023/06/24 13:00:30;;;;;;;;;;;28.60;41.60;;;;;;5101189;27;43601;-79
2023/06/24 13:02:56;;;;;;;;;;;28.60;41.20;;;;;;5104266;27;42877;-79
2023/06/24 13:05:21;;;;;;;;;;;28.60;41.40;;;;;;5103501;27;43577;-78
2023/06/24 13:07:47;;;;;;;;;;;28.60;41.50;;;;;;5103991;27;43158;-81
2023/06/24 13:10:13;;;;;;;;;;;28.60;41.60;;;;;;5104417;27;43329;-74
2023/06/24 13:12:38;;;;;;;;;;;28.60;41.60;;;;;;5104198;27;43963;-82
2023/06/24 13:15:05;;;;;;;;;;;28.60;41.60;;;;;;5100839;27;43019;-74
2023/06/24 13:17:33;;;;;;;;;;;28.60;41.60;;;;;;5107081;27;42998;-74
2023/06/24 13:19:59;;;;;;;;;;;28.70;41.70;;;;;;5107875;27;43952;-74
2023/06/24 13:22:24;;;;;;;;;;;28.70;41.60;;;;;;5102519;27;43139;-76
2023/06/24 13:24:50;;;;;;;;;;;28.60;41.50;;;;;;5101093;27;43178;-79
2023/06/24 13:27:16;;;;;;;;;;;28.60;41.50;;;;;;5103979;27;42960;-81
2023/06/24 13:29:42;;;;;;;;;;;28.70;42.20;;;;;;5096078;27;44047;-81
2023/06/24 13:32:08;;;;;;;;;;;28.70;42.10;;;;;;5098236;27;43047;-82
2023/06/24 13:34:34;;;;;;;;;;;28.70;41.50;;;;;;5104513;27;43476;-82
2023/06/24 13:36:59;;;;;;;;;;;28.70;41.40;;;;;;5104448;27;43019;-81
2023/06/24 13:39:25;;;;;;;;;;;28.70;41.50;;;;;;5104541;27;43865;-80
2023/06/24 13:41:52;;;;;;;;;;;28.70;41.40;;;;;;5104936;27;43016;-74
2023/06/24 13:44:18;;;;;;;;;;;28.70;41.20;;;;;;5103788;27;43468;-77
2023/06/24 13:46:44;;;;;;;;;;;;;;;;;;5102803;27;43141;-84
2023/06/24 13:49:09;;;;;;;;;;;28.70;41.30;;;;;;5098019;27;43817;-81
2023/06/24 13:51:35;;;;;;;;;;;28.70;41.40;;;;;;5104875;27;43251;-77
2023/06/24 13:54:01;;;;;;;;;;;28.80;41.70;;;;;;5105681;27;44000;-82
2023/06/24 13:56:26;;;;;;;;;;;28.70;41.60;;;;;;5092229;27;43112;-77
2023/06/24 13:58:53;;;;;;;;;;;28.70;41.60;;;;;;5104037;27;43005;-78
2023/06/24 14:01:19;;;;;;;;;;;28.70;41.60;;;;;;5104391;27;42972;-75
2023/06/24 14:03:45;;;;;;;;;;;28.80;41.70;;;;;;5104466;27;43843;-76
2023/06/24 14:06:15;;;;;;;;;;;28.80;41.40;;;;;;5104188;27;42948;-81
2023/06/24 14:08:40;;;;;;;;;;;28.70;41.40;;;;;;5104088;27;42956;-78
2023/06/24 14:11:06;;;;;;;;;;;28.70;41.40;;;;;;5091653;27;43000;-79
2023/06/24 14:13:31;;;;;;;;;;;28.70;41.30;;;;;;5102393;27;42919;-81